sensor_id;sensor_type;location;lat;lon;timestamp;P1;durP1;ratioP1;P2;durP2;ratioP2
8333;SDS011;4204;43.004;23.052;2023-04-03T00:00:12;1.67;;;1.57;;
8333;SDS011;4204;43.004;23.052;2023-04-03T00:02:39;3.10;;;1.90;;
8333;SDS011;4204;43.004;23.052;2023-04-03T00:05:07;6.13;;;3.60;;
8333;SDS011;4204;43.004;23.052;2023-04-03T00:07:34;7.63;;;5.10;;
8333;SDS011;4204;43.004;23.052;2023-04-03T00:10:03;10.77;;;5.87;;
8333;SDS011;4204;43.004;23.052;2023-04-03T00:12:30;4.87;;;2.90;;
8333;SDS011;4204;43.004;23.052;2023-04-03T00:14:58;3.70;;;2.27;;
8333;SDS011;4204;43.004;23.052;2023-04-03T00:17:25;8.17;;;4.90;;
8333;SDS011;4204;43.004;23.052;2023-04-03T00:19:52;5.03;;;3.43;;
8333;SDS011;4204;43.004;23.052;2023-04-03T00:22:19;6.03;;;3.80;;
8333;SDS011;4204;43.004;23.052;2023-04-03T00:24:47;6.60;;;4.70;;
8333;SDS011;4204;43.004;23.052;2023-04-03T00:27:15;6.00;;;3.70;;
8333;SDS011;4204;43.004;23.052;2023-04-03T00:29:42;5.07;;;3.90;;
8333;SDS011;4204;43.004;23.052;2023-04-03T00:32:09;7.20;;;4.80;;
8333;SDS011;4204;43.004;23.052;2023-04-03T00:34:37;7.13;;;5.47;;
8333;SDS011;4204;43.004;23.052;2023-04-03T00:37:04;7.00;;;4.30;;
8333;SDS011;4204;43.004;23.052;2023-04-03T00:39:31;4.00;;;3.03;;
8333;SDS011;4204;43.004;23.052;2023-04-03T00:41:59;3.20;;;2.60;;
8333;SDS011;4204;43.004;23.052;2023-04-03T00:47:10;2.53;;;2.17;;
8333;SDS011;4204;43.004;23.052;2023-04-03T00:49:38;3.40;;;2.60;;
8333;SDS011;4204;43.004;23.052;2023-04-03T00:52:05;2.57;;;2.37;;
8333;SDS011;4204;43.004;23.052;2023-04-03T00:54:34;3.00;;;2.80;;
8333;SDS011;4204;43.004;23.052;2023-04-03T00:57:02;3.60;;;3.00;;
8333;SDS011;4204;43.004;23.052;2023-04-03T00:59:30;3.93;;;2.90;;
8333;SDS011;4204;43.004;23.052;2023-04-03T01:01:58;2.93;;;2.50;;
8333;SDS011;4204;43.004;23.052;2023-04-03T01:04:28;5.50;;;3.17;;
8333;SDS011;4204;43.004;23.052;2023-04-03T01:06:56;3.93;;;2.50;;
8333;SDS011;4204;43.004;23.052;2023-04-03T01:09:25;6.50;;;4.63;;
8333;SDS011;4204;43.004;23.052;2023-04-03T01:11:53;4.63;;;2.80;;
8333;SDS011;4204;43.004;23.052;2023-04-03T01:14:20;6.87;;;3.90;;
8333;SDS011;4204;43.004;23.052;2023-04-03T01:16:52;4.20;;;2.53;;
8333;SDS011;4204;43.004;23.052;2023-04-03T01:19:19;3.97;;;2.90;;
8333;SDS011;4204;43.004;23.052;2023-04-03T01:22:05;2.90;;;2.37;;
8333;SDS011;4204;43.004;23.052;2023-04-03T01:24:38;4.00;;;3.17;;
8333;SDS011;4204;43.004;23.052;2023-04-03T01:27:09;6.20;;;4.77;;
8333;SDS011;4204;43.004;23.052;2023-04-03T01:29:36;4.73;;;3.67;;
8333;SDS011;4204;43.004;23.052;2023-04-03T01:32:05;2.80;;;2.60;;
8333;SDS011;4204;43.004;23.052;2023-04-03T01:34:33;2.20;;;1.90;;
8333;SDS011;4204;43.004;23.052;2023-04-03T01:37:00;3.77;;;2.03;;
8333;SDS011;4204;43.004;23.052;2023-04-03T01:39:27;2.23;;;2.03;;
8333;SDS011;4204;43.004;23.052;2023-04-03T01:41:55;1.97;;;1.87;;
8333;SDS011;4204;43.004;23.052;2023-04-03T01:44:29;2.20;;;2.00;;
8333;SDS011;4204;43.004;23.052;2023-04-03T01:46:56;3.07;;;2.30;;
8333;SDS011;4204;43.004;23.052;2023-04-03T01:49:26;2.57;;;2.33;;
8333;SDS011;4204;43.004;23.052;2023-04-03T01:51:54;2.03;;;1.83;;
8333;SDS011;4204;43.004;23.052;2023-04-03T01:54:21;3.07;;;2.10;;
8333;SDS011;4204;43.004;23.052;2023-04-03T01:56:48;2.83;;;2.20;;
8333;SDS011;4204;43.004;23.052;2023-04-03T01:59:17;2.60;;;2.10;;
8333;SDS011;4204;43.004;23.052;2023-04-03T02:01:45;2.43;;;2.20;;
8333;SDS011;4204;43.004;23.052;2023-04-03T02:04:12;2.00;;;1.90;;
8333;SDS011;4204;43.004;23.052;2023-04-03T02:06:41;2.20;;;2.00;;
8333;SDS011;4204;43.004;23.052;2023-04-03T02:09:09;1.40;;;1.30;;
8333;SDS011;4204;43.004;23.052;2023-04-03T02:11:36;1.90;;;1.70;;
8333;SDS011;4204;43.004;23.052;2023-04-03T02:14:03;2.47;;;2.13;;
8333;SDS011;4204;43.004;23.052;2023-04-03T02:16:31;7.53;;;4.97;;
8333;SDS011;4204;43.004;23.052;2023-04-03T02:18:58;6.70;;;4.60;;
8333;SDS011;4204;43.004;23.052;2023-04-03T02:21:25;14.83;;;7.70;;
8333;SDS011;4204;43.004;23.052;2023-04-03T02:23:54;9.00;;;5.40;;
8333;SDS011;4204;43.004;23.052;2023-04-03T02:26:23;4.43;;;3.50;;
8333;SDS011;4204;43.004;23.052;2023-04-03T02:28:50;5.33;;;3.70;;
8333;SDS011;4204;43.004;23.052;2023-04-03T02:31:17;9.90;;;5.27;;
8333;SDS011;4204;43.004;23.052;2023-04-03T02:33:46;3.23;;;2.40;;
8333;SDS011;4204;43.004;23.052;2023-04-03T02:36:15;1.80;;;1.70;;
8333;SDS011;4204;43.004;23.052;2023-04-03T02:38:46;3.37;;;2.33;;
8333;SDS011;4204;43.004;23.052;2023-04-03T02:41:15;2.73;;;2.17;;
8333;SDS011;4204;43.004;23.052;2023-04-03T02:43:42;4.90;;;3.17;;
8333;SDS011;4204;43.004;23.052;2023-04-03T02:46:10;4.47;;;2.90;;
8333;SDS011;4204;43.004;23.052;2023-04-03T02:48:37;2.73;;;2.23;;
8333;SDS011;4204;43.004;23.052;2023-04-03T02:51:04;6.60;;;3.50;;
8333;SDS011;4204;43.004;23.052;2023-04-03T02:53:32;5.10;;;3.17;;
8333;SDS011;4204;43.004;23.052;2023-04-03T02:56:06;2.90;;;2.40;;
8333;SDS011;4204;43.004;23.052;2023-04-03T02:58:34;3.80;;;2.83;;
8333;SDS011;4204;43.004;23.052;2023-04-03T03:01:03;3.80;;;2.67;;
8333;SDS011;4204;43.004;23.052;2023-04-03T03:03:30;5.30;;;3.80;;
8333;SDS011;4204;43.004;23.052;2023-04-03T03:06:01;7.97;;;5.40;;
8333;SDS011;4204;43.004;23.052;2023-04-03T03:08:28;9.07;;;5.67;;
8333;SDS011;4204;43.004;23.052;2023-04-03T03:10:56;6.50;;;5.03;;
8333;SDS011;4204;43.004;23.052;2023-04-03T03:13:23;6.17;;;4.70;;
8333;SDS011;4204;43.004;23.052;2023-04-03T03:15:51;5.57;;;4.47;;
8333;SDS011;4204;43.004;23.052;2023-04-03T03:18:19;3.53;;;2.90;;
8333;SDS011;4204;43.004;23.052;2023-04-03T03:20:50;3.13;;;2.23;;
8333;SDS011;4204;43.004;23.052;2023-04-03T03:23:19;2.47;;;1.97;;
8333;SDS011;4204;43.004;23.052;2023-04-03T03:25:46;2.50;;;2.10;;
8333;SDS011;4204;43.004;23.052;2023-04-03T03:28:13;2.33;;;2.13;;
8333;SDS011;4204;43.004;23.052;2023-04-03T03:30:40;4.00;;;3.37;;
8333;SDS011;4204;43.004;23.052;2023-04-03T03:33:09;3.10;;;2.60;;
8333;SDS011;4204;43.004;23.052;2023-04-03T03:35:36;2.70;;;2.47;;
8333;SDS011;4204;43.004;23.052;2023-04-03T03:38:03;4.00;;;3.23;;
8333;SDS011;4204;43.004;23.052;2023-04-03T03:40:31;4.93;;;3.73;;
8333;SDS011;4204;43.004;23.052;2023-04-03T03:42:59;4.03;;;3.10;;
8333;SDS011;4204;43.004;23.052;2023-04-03T03:45:26;2.47;;;2.27;;
8333;SDS011;4204;43.004;23.052;2023-04-03T03:47:53;2.77;;;2.00;;
8333;SDS011;4204;43.004;23.052;2023-04-03T03:50:22;4.47;;;2.70;;
8333;SDS011;4204;43.004;23.052;2023-04-03T03:52:50;14.53;;;9.70;;
8333;SDS011;4204;43.004;23.052;2023-04-03T03:55:17;11.70;;;7.17;;
8333;SDS011;4204;43.004;23.052;2023-04-03T03:57:49;7.20;;;5.00;;
8333;SDS011;4204;43.004;23.052;2023-04-03T04:00:16;11.53;;;7.50;;
8333;SDS011;4204;43.004;23.052;2023-04-03T04:02:50;8.40;;;5.67;;
8333;SDS011;4204;43.004;23.052;2023-04-03T04:05:21;7.60;;;4.27;;
8333;SDS011;4204;43.004;23.052;2023-04-03T04:07:49;3.73;;;2.90;;
8333;SDS011;4204;43.004;23.052;2023-04-03T04:10:17;5.27;;;4.50;;
8333;SDS011;4204;43.004;23.052;2023-04-03T04:12:45;4.70;;;3.80;;
8333;SDS011;4204;43.004;23.052;2023-04-03T04:15:13;6.13;;;4.17;;
8333;SDS011;4204;43.004;23.052;2023-04-03T04:17:40;5.83;;;4.90;;
8333;SDS011;4204;43.004;23.052;2023-04-03T04:20:11;4.73;;;4.10;;
8333;SDS011;4204;43.004;23.052;2023-04-03T04:22:40;4.90;;;3.80;;
8333;SDS011;4204;43.004;23.052;2023-04-03T04:25:08;5.43;;;4.40;;
8333;SDS011;4204;43.004;23.052;2023-04-03T04:27:38;4.67;;;4.00;;
8333;SDS011;4204;43.004;23.052;2023-04-03T04:30:05;5.33;;;4.27;;
8333;SDS011;4204;43.004;23.052;2023-04-03T04:32:33;12.47;;;6.17;;
8333;SDS011;4204;43.004;23.052;2023-04-03T04:35:02;7.30;;;4.20;;
8333;SDS011;4204;43.004;23.052;2023-04-03T04:37:31;13.70;;;7.97;;
8333;SDS011;4204;43.004;23.052;2023-04-03T04:40:01;6.60;;;4.80;;
8333;SDS011;4204;43.004;23.052;2023-04-03T04:42:29;8.20;;;5.47;;
8333;SDS011;4204;43.004;23.052;2023-04-03T04:44:57;6.37;;;4.93;;
8333;SDS011;4204;43.004;23.052;2023-04-03T04:47:24;4.37;;;2.87;;
8333;SDS011;4204;43.004;23.052;2023-04-03T04:49:51;2.97;;;2.50;;
8333;SDS011;4204;43.004;23.052;2023-04-03T04:52:19;3.87;;;2.80;;
8333;SDS011;4204;43.004;23.052;2023-04-03T04:54:46;3.10;;;2.80;;
8333;SDS011;4204;43.004;23.052;2023-04-03T04:57:16;2.57;;;2.37;;
8333;SDS011;4204;43.004;23.052;2023-04-03T04:59:44;2.30;;;2.00;;
8333;SDS011;4204;43.004;23.052;2023-04-03T05:02:11;3.33;;;2.23;;
8333;SDS011;4204;43.004;23.052;2023-04-03T05:04:41;2.30;;;2.10;;
8333;SDS011;4204;43.004;23.052;2023-04-03T05:07:14;2.30;;;1.90;;
8333;SDS011;4204;43.004;23.052;2023-04-03T05:09:41;1.90;;;1.80;;
8333;SDS011;4204;43.004;23.052;2023-04-03T05:12:09;1.80;;;1.70;;
8333;SDS011;4204;43.004;23.052;2023-04-03T05:14:44;2.47;;;2.10;;
8333;SDS011;4204;43.004;23.052;2023-04-03T05:17:11;2.97;;;2.50;;
8333;SDS011;4204;43.004;23.052;2023-04-03T05:19:42;3.03;;;2.33;;
8333;SDS011;4204;43.004;23.052;2023-04-03T05:22:11;2.13;;;1.93;;
8333;SDS011;4204;43.004;23.052;2023-04-03T05:24:38;3.83;;;2.33;;
8333;SDS011;4204;43.004;23.052;2023-04-03T05:27:07;3.70;;;3.40;;
8333;SDS011;4204;43.004;23.052;2023-04-03T05:29:38;3.40;;;2.43;;
8333;SDS011;4204;43.004;23.052;2023-04-03T05:32:11;3.07;;;2.30;;
8333;SDS011;4204;43.004;23.052;2023-04-03T05:34:38;2.30;;;2.10;;
8333;SDS011;4204;43.004;23.052;2023-04-03T05:37:06;5.60;;;3.97;;
8333;SDS011;4204;43.004;23.052;2023-04-03T05:39:34;3.37;;;2.47;;
8333;SDS011;4204;43.004;23.052;2023-04-03T05:42:02;3.77;;;2.70;;
8333;SDS011;4204;43.004;23.052;2023-04-03T05:44:30;2.60;;;2.30;;
8333;SDS011;4204;43.004;23.052;2023-04-03T05:46:57;17.67;;;9.03;;
8333;SDS011;4204;43.004;23.052;2023-04-03T05:49:26;5.07;;;3.00;;
8333;SDS011;4204;43.004;23.052;2023-04-03T05:51:53;3.53;;;3.13;;
8333;SDS011;4204;43.004;23.052;2023-04-03T05:54:27;10.70;;;7.47;;
8333;SDS011;4204;43.004;23.052;2023-04-03T05:57:01;10.67;;;6.50;;
8333;SDS011;4204;43.004;23.052;2023-04-03T05:59:29;9.77;;;5.93;;
8333;SDS011;4204;43.004;23.052;2023-04-03T06:01:58;8.77;;;6.27;;
8333;SDS011;4204;43.004;23.052;2023-04-03T06:04:26;11.70;;;7.80;;
8333;SDS011;4204;43.004;23.052;2023-04-03T06:06:54;8.50;;;6.73;;
8333;SDS011;4204;43.004;23.052;2023-04-03T06:09:23;5.63;;;5.10;;
8333;SDS011;4204;43.004;23.052;2023-04-03T06:11:51;9.03;;;5.40;;
8333;SDS011;4204;43.004;23.052;2023-04-03T06:14:19;10.43;;;7.03;;
8333;SDS011;4204;43.004;23.052;2023-04-03T06:16:46;9.80;;;7.50;;
8333;SDS011;4204;43.004;23.052;2023-04-03T06:19:14;10.77;;;7.03;;
8333;SDS011;4204;43.004;23.052;2023-04-03T06:21:47;11.47;;;7.77;;
8333;SDS011;4204;43.004;23.052;2023-04-03T06:24:15;7.67;;;6.07;;
8333;SDS011;4204;43.004;23.052;2023-04-03T06:26:43;7.13;;;5.60;;
8333;SDS011;4204;43.004;23.052;2023-04-03T06:29:11;5.53;;;4.30;;
8333;SDS011;4204;43.004;23.052;2023-04-03T06:31:38;4.27;;;3.87;;
8333;SDS011;4204;43.004;23.052;2023-04-03T06:34:06;3.80;;;3.47;;
8333;SDS011;4204;43.004;23.052;2023-04-03T06:36:33;5.67;;;4.07;;
8333;SDS011;4204;43.004;23.052;2023-04-03T06:39:02;4.00;;;3.60;;
8333;SDS011;4204;43.004;23.052;2023-04-03T06:41:29;8.97;;;6.70;;
8333;SDS011;4204;43.004;23.052;2023-04-03T06:43:57;10.80;;;6.57;;
8333;SDS011;4204;43.004;23.052;2023-04-03T06:46:25;6.23;;;4.20;;
8333;SDS011;4204;43.004;23.052;2023-04-03T06:48:52;4.37;;;3.00;;
8333;SDS011;4204;43.004;23.052;2023-04-03T06:51:20;5.20;;;4.03;;
8333;SDS011;4204;43.004;23.052;2023-04-03T06:53:48;5.17;;;4.00;;
8333;SDS011;4204;43.004;23.052;2023-04-03T06:56:17;13.87;;;5.00;;
8333;SDS011;4204;43.004;23.052;2023-04-03T06:58:45;44.07;;;10.77;;
8333;SDS011;4204;43.004;23.052;2023-04-03T07:01:14;184.07;;;28.77;;
8333;SDS011;4204;43.004;23.052;2023-04-03T07:03:42;299.90;;;45.30;;
8333;SDS011;4204;43.004;23.052;2023-04-03T07:06:09;120.77;;;23.03;;
8333;SDS011;4204;43.004;23.052;2023-04-03T07:08:38;49.03;;;11.50;;
8333;SDS011;4204;43.004;23.052;2023-04-03T07:11:05;13.43;;;5.17;;
8333;SDS011;4204;43.004;23.052;2023-04-03T07:13:34;5.60;;;4.60;;
8333;SDS011;4204;43.004;23.052;2023-04-03T07:16:02;5.97;;;3.97;;
8333;SDS011;4204;43.004;23.052;2023-04-03T07:18:31;5.73;;;3.93;;
8333;SDS011;4204;43.004;23.052;2023-04-03T07:20:58;8.73;;;4.40;;
8333;SDS011;4204;43.004;23.052;2023-04-03T07:23:26;4.70;;;4.13;;
8333;SDS011;4204;43.004;23.052;2023-04-03T07:25:53;3.57;;;3.27;;
8333;SDS011;4204;43.004;23.052;2023-04-03T07:28:21;3.30;;;3.00;;
8333;SDS011;4204;43.004;23.052;2023-04-03T07:30:51;3.63;;;3.30;;
8333;SDS011;4204;43.004;23.052;2023-04-03T07:33:19;4.40;;;3.40;;
8333;SDS011;4204;43.004;23.052;2023-04-03T07:35:47;5.63;;;3.70;;
8333;SDS011;4204;43.004;23.052;2023-04-03T07:38:14;3.40;;;2.90;;
8333;SDS011;4204;43.004;23.052;2023-04-03T07:40:45;4.67;;;2.83;;
8333;SDS011;4204;43.004;23.052;2023-04-03T07:43:12;2.77;;;2.50;;
8333;SDS011;4204;43.004;23.052;2023-04-03T07:45:39;2.77;;;2.57;;
8333;SDS011;4204;43.004;23.052;2023-04-03T07:48:08;2.40;;;2.20;;
8333;SDS011;4204;43.004;23.052;2023-04-03T07:50:36;2.80;;;2.50;;
8333;SDS011;4204;43.004;23.052;2023-04-03T07:53:03;3.17;;;2.60;;
8333;SDS011;4204;43.004;23.052;2023-04-03T07:55:31;2.53;;;2.33;;
8333;SDS011;4204;43.004;23.052;2023-04-03T07:57:58;2.20;;;2.00;;
8333;SDS011;4204;43.004;23.052;2023-04-03T08:00:26;3.07;;;2.30;;
8333;SDS011;4204;43.004;23.052;2023-04-03T08:02:53;2.67;;;2.40;;
8333;SDS011;4204;43.004;23.052;2023-04-03T08:05:21;2.77;;;2.43;;
8333;SDS011;4204;43.004;23.052;2023-04-03T08:07:49;2.50;;;2.30;;
8333;SDS011;4204;43.004;23.052;2023-04-03T08:10:16;2.97;;;2.60;;
8333;SDS011;4204;43.004;23.052;2023-04-03T08:12:45;2.77;;;2.30;;
8333;SDS011;4204;43.004;23.052;2023-04-03T08:15:12;4.37;;;3.00;;
8333;SDS011;4204;43.004;23.052;2023-04-03T08:17:40;12.80;;;5.40;;
8333;SDS011;4204;43.004;23.052;2023-04-03T08:20:07;4.90;;;4.17;;
8333;SDS011;4204;43.004;23.052;2023-04-03T08:22:36;7.57;;;5.40;;
8333;SDS011;4204;43.004;23.052;2023-04-03T08:25:04;2.97;;;2.67;;
8333;SDS011;4204;43.004;23.052;2023-04-03T08:27:31;2.83;;;2.40;;
8333;SDS011;4204;43.004;23.052;2023-04-03T08:29:58;2.23;;;2.03;;
8333;SDS011;4204;43.004;23.052;2023-04-03T08:32:26;2.50;;;2.30;;
8333;SDS011;4204;43.004;23.052;2023-04-03T08:34:53;2.17;;;1.93;;
8333;SDS011;4204;43.004;23.052;2023-04-03T08:37:21;2.87;;;2.40;;
8333;SDS011;4204;43.004;23.052;2023-04-03T08:39:49;3.47;;;2.10;;
8333;SDS011;4204;43.004;23.052;2023-04-03T08:42:19;3.10;;;2.40;;
8333;SDS011;4204;43.004;23.052;2023-04-03T08:44:50;2.57;;;2.33;;
8333;SDS011;4204;43.004;23.052;2023-04-03T08:47:23;3.57;;;2.27;;
8333;SDS011;4204;43.004;23.052;2023-04-03T08:49:52;2.77;;;2.47;;
8333;SDS011;4204;43.004;23.052;2023-04-03T08:52:23;2.23;;;2.03;;
8333;SDS011;4204;43.004;23.052;2023-04-03T08:54:56;2.27;;;2.07;;
8333;SDS011;4204;43.004;23.052;2023-04-03T08:57:26;2.73;;;2.43;;
8333;SDS011;4204;43.004;23.052;2023-04-03T08:59:54;2.40;;;2.20;;
8333;SDS011;4204;43.004;23.052;2023-04-03T09:02:24;2.37;;;2.17;;
8333;SDS011;4204;43.004;23.052;2023-04-03T09:04:53;2.23;;;2.10;;
8333;SDS011;4204;43.004;23.052;2023-04-03T09:07:22;9.87;;;4.77;;
8333;SDS011;4204;43.004;23.052;2023-04-03T09:09:50;9.70;;;3.40;;
8333;SDS011;4204;43.004;23.052;2023-04-03T09:12:21;4.10;;;3.67;;
8333;SDS011;4204;43.004;23.052;2023-04-03T09:14:54;5.70;;;4.80;;
8333;SDS011;4204;43.004;23.052;2023-04-03T09:17:26;6.00;;;3.93;;
8333;SDS011;4204;43.004;23.052;2023-04-03T09:19:56;7.20;;;5.90;;
8333;SDS011;4204;43.004;23.052;2023-04-03T09:22:25;3.87;;;3.30;;
8333;SDS011;4204;43.004;23.052;2023-04-03T09:24:55;3.73;;;2.80;;
8333;SDS011;4204;43.004;23.052;2023-04-03T09:27:25;4.73;;;2.80;;
8333;SDS011;4204;43.004;23.052;2023-04-03T09:29:53;5.87;;;4.90;;
8333;SDS011;4204;43.004;23.052;2023-04-03T09:32:22;2.70;;;2.30;;
8333;SDS011;4204;43.004;23.052;2023-04-03T09:34:51;2.77;;;2.57;;
8333;SDS011;4204;43.004;23.052;2023-04-03T09:37:33;3.77;;;2.80;;
8333;SDS011;4204;43.004;23.052;2023-04-03T09:40:01;2.77;;;2.40;;
8333;SDS011;4204;43.004;23.052;2023-04-03T09:42:31;5.90;;;3.90;;
8333;SDS011;4204;43.004;23.052;2023-04-03T09:44:59;2.87;;;2.40;;
8333;SDS011;4204;43.004;23.052;2023-04-03T09:47:27;4.43;;;2.87;;
8333;SDS011;4204;43.004;23.052;2023-04-03T09:50:08;4.70;;;2.80;;
8333;SDS011;4204;43.004;23.052;2023-04-03T09:52:36;4.00;;;2.30;;
8333;SDS011;4204;43.004;23.052;2023-04-03T09:55:06;4.60;;;2.37;;
8333;SDS011;4204;43.004;23.052;2023-04-03T09:57:35;3.23;;;2.37;;
8333;SDS011;4204;43.004;23.052;2023-04-03T10:00:03;2.00;;;1.70;;
8333;SDS011;4204;43.004;23.052;2023-04-03T10:02:35;2.87;;;2.17;;
8333;SDS011;4204;43.004;23.052;2023-04-03T10:05:03;2.20;;;1.90;;
8333;SDS011;4204;43.004;23.052;2023-04-03T10:07:32;3.63;;;2.20;;
8333;SDS011;4204;43.004;23.052;2023-04-03T10:10:00;2.17;;;1.97;;
8333;SDS011;4204;43.004;23.052;2023-04-03T10:12:28;2.17;;;1.70;;
8333;SDS011;4204;43.004;23.052;2023-04-03T10:14:58;1.77;;;1.67;;
8333;SDS011;4204;43.004;23.052;2023-04-03T10:17:30;2.03;;;1.83;;
8333;SDS011;4204;43.004;23.052;2023-04-03T10:20:01;2.30;;;2.10;;
8333;SDS011;4204;43.004;23.052;2023-04-03T10:22:30;2.47;;;1.90;;
8333;SDS011;4204;43.004;23.052;2023-04-03T10:25:04;2.07;;;1.80;;
8333;SDS011;4204;43.004;23.052;2023-04-03T10:27:40;1.87;;;1.70;;
8333;SDS011;4204;43.004;23.052;2023-04-03T10:30:15;1.43;;;1.33;;
8333;SDS011;4204;43.004;23.052;2023-04-03T10:32:49;9.17;;;6.47;;
8333;SDS011;4204;43.004;23.052;2023-04-03T10:35:22;1.60;;;1.50;;
8333;SDS011;4204;43.004;23.052;2023-04-03T10:37:58;1.33;;;1.13;;
8333;SDS011;4204;43.004;23.052;2023-04-03T10:40:29;1.17;;;1.07;;
8333;SDS011;4204;43.004;23.052;2023-04-03T10:43:00;1.20;;;1.10;;
8333;SDS011;4204;43.004;23.052;2023-04-03T10:45:32;1.53;;;1.20;;
8333;SDS011;4204;43.004;23.052;2023-04-03T10:48:04;2.10;;;1.00;;
8333;SDS011;4204;43.004;23.052;2023-04-03T10:50:36;1.40;;;1.30;;
8333;SDS011;4204;43.004;23.052;2023-04-03T10:53:06;0.90;;;0.90;;
8333;SDS011;4204;43.004;23.052;2023-04-03T10:55:36;1.10;;;1.00;;
8333;SDS011;4204;43.004;23.052;2023-04-03T10:58:04;1.73;;;1.10;;
8333;SDS011;4204;43.004;23.052;2023-04-03T11:00:35;1.30;;;1.20;;
8333;SDS011;4204;43.004;23.052;2023-04-03T11:03:03;0.93;;;0.83;;
8333;SDS011;4204;43.004;23.052;2023-04-03T11:05:34;1.07;;;1.00;;
8333;SDS011;4204;43.004;23.052;2023-04-03T11:08:02;1.00;;;0.90;;
8333;SDS011;4204;43.004;23.052;2023-04-03T11:10:33;1.10;;;1.00;;
8333;SDS011;4204;43.004;23.052;2023-04-03T11:13:06;1.10;;;1.00;;
8333;SDS011;4204;43.004;23.052;2023-04-03T11:15:36;2.20;;;2.00;;
8333;SDS011;4204;43.004;23.052;2023-04-03T11:18:04;1.03;;;1.03;;
8333;SDS011;4204;43.004;23.052;2023-04-03T11:20:33;1.47;;;1.20;;
8333;SDS011;4204;43.004;23.052;2023-04-03T11:23:04;1.10;;;1.00;;
8333;SDS011;4204;43.004;23.052;2023-04-03T11:25:33;1.33;;;1.07;;
8333;SDS011;4204;43.004;23.052;2023-04-03T11:28:02;1.20;;;1.10;;
8333;SDS011;4204;43.004;23.052;2023-04-03T11:30:30;1.60;;;1.50;;
8333;SDS011;4204;43.004;23.052;2023-04-03T11:33:03;1.63;;;1.53;;
8333;SDS011;4204;43.004;23.052;2023-04-03T11:35:32;6.53;;;3.63;;
8333;SDS011;4204;43.004;23.052;2023-04-03T11:38:00;2.30;;;1.67;;
8333;SDS011;4204;43.004;23.052;2023-04-03T11:40:28;2.60;;;1.30;;
8333;SDS011;4204;43.004;23.052;2023-04-03T11:43:02;1.30;;;1.20;;
8333;SDS011;4204;43.004;23.052;2023-04-03T11:45:35;2.43;;;2.20;;
8333;SDS011;4204;43.004;23.052;2023-04-03T11:48:05;1.40;;;1.30;;
8333;SDS011;4204;43.004;23.052;2023-04-03T11:50:40;1.70;;;1.60;;
8333;SDS011;4204;43.004;23.052;2023-04-03T11:53:27;2.30;;;2.10;;
8333;SDS011;4204;43.004;23.052;2023-04-03T11:55:56;2.20;;;2.00;;
8333;SDS011;4204;43.004;23.052;2023-04-03T11:58:24;3.30;;;2.43;;
8333;SDS011;4204;43.004;23.052;2023-04-03T12:00:56;2.53;;;2.30;;
8333;SDS011;4204;43.004;23.052;2023-04-03T12:09:09;3.10;;;2.53;;
8333;SDS011;4204;43.004;23.052;2023-04-03T12:11:49;2.30;;;2.10;;
8333;SDS011;4204;43.004;23.052;2023-04-03T12:14:16;1.90;;;1.70;;
8333;SDS011;4204;43.004;23.052;2023-04-03T12:16:45;2.50;;;2.10;;
8333;SDS011;4204;43.004;23.052;2023-04-03T12:19:32;3.33;;;2.57;;
8333;SDS011;4204;43.004;23.052;2023-04-03T12:22:05;3.00;;;2.70;;
8333;SDS011;4204;43.004;23.052;2023-04-03T12:24:34;1.63;;;1.53;;
8333;SDS011;4204;43.004;23.052;2023-04-03T12:27:04;1.60;;;1.50;;
8333;SDS011;4204;43.004;23.052;2023-04-03T12:29:33;2.00;;;1.80;;
8333;SDS011;4204;43.004;23.052;2023-04-03T12:32:06;2.60;;;2.40;;
8333;SDS011;4204;43.004;23.052;2023-04-03T12:34:42;1.60;;;1.50;;
8333;SDS011;4204;43.004;23.052;2023-04-03T12:37:16;1.60;;;1.50;;
8333;SDS011;4204;43.004;23.052;2023-04-03T12:39:52;2.50;;;1.60;;
8333;SDS011;4204;43.004;23.052;2023-04-03T12:45:17;6.70;;;4.93;;
8333;SDS011;4204;43.004;23.052;2023-04-03T12:47:47;1.87;;;1.73;;
8333;SDS011;4204;43.004;23.052;2023-04-03T12:50:17;4.30;;;3.77;;
8333;SDS011;4204;43.004;23.052;2023-04-03T12:52:45;5.93;;;3.43;;
8333;SDS011;4204;43.004;23.052;2023-04-03T12:55:16;1.80;;;1.70;;
8333;SDS011;4204;43.004;23.052;2023-04-03T12:57:44;1.60;;;1.50;;
8333;SDS011;4204;43.004;23.052;2023-04-03T13:00:18;1.53;;;1.43;;
8333;SDS011;4204;43.004;23.052;2023-04-03T13:02:46;1.70;;;1.60;;
8333;SDS011;4204;43.004;23.052;2023-04-03T13:05:14;2.20;;;1.90;;
8333;SDS011;4204;43.004;23.052;2023-04-03T13:07:43;1.60;;;1.50;;
8333;SDS011;4204;43.004;23.052;2023-04-03T13:10:17;2.40;;;1.97;;
8333;SDS011;4204;43.004;23.052;2023-04-03T13:12:46;2.30;;;2.07;;
8333;SDS011;4204;43.004;23.052;2023-04-03T13:15:14;3.30;;;2.00;;
8333;SDS011;4204;43.004;23.052;2023-04-03T13:17:43;2.53;;;2.07;;
8333;SDS011;4204;43.004;23.052;2023-04-03T13:20:18;1.77;;;1.67;;
8333;SDS011;4204;43.004;23.052;2023-04-03T13:22:50;1.70;;;1.60;;
8333;SDS011;4204;43.004;23.052;2023-04-03T13:25:21;2.03;;;1.70;;
8333;SDS011;4204;43.004;23.052;2023-04-03T13:27:49;2.03;;;1.87;;
8333;SDS011;4204;43.004;23.052;2023-04-03T13:30:21;2.07;;;1.87;;
8333;SDS011;4204;43.004;23.052;2023-04-03T13:32:50;1.93;;;1.80;;
8333;SDS011;4204;43.004;23.052;2023-04-03T13:35:31;2.37;;;2.03;;
8333;SDS011;4204;43.004;23.052;2023-04-03T13:38:00;2.90;;;2.03;;
8333;SDS011;4204;43.004;23.052;2023-04-03T13:40:29;2.27;;;2.07;;
8333;SDS011;4204;43.004;23.052;2023-04-03T13:43:00;2.43;;;2.23;;
8333;SDS011;4204;43.004;23.052;2023-04-03T13:45:29;2.70;;;2.47;;
8333;SDS011;4204;43.004;23.052;2023-04-03T13:48:07;2.67;;;2.30;;
8333;SDS011;4204;43.004;23.052;2023-04-03T13:50:49;3.33;;;2.20;;
8333;SDS011;4204;43.004;23.052;2023-04-03T13:53:17;2.20;;;2.00;;
8333;SDS011;4204;43.004;23.052;2023-04-03T13:55:54;1.73;;;1.63;;
8333;SDS011;4204;43.004;23.052;2023-04-03T13:58:23;1.80;;;1.70;;
8333;SDS011;4204;43.004;23.052;2023-04-03T14:00:52;2.33;;;2.00;;
8333;SDS011;4204;43.004;23.052;2023-04-03T14:03:21;2.43;;;2.23;;
8333;SDS011;4204;43.004;23.052;2023-04-03T14:05:48;2.50;;;1.90;;
8333;SDS011;4204;43.004;23.052;2023-04-03T14:08:15;2.57;;;2.20;;
8333;SDS011;4204;43.004;23.052;2023-04-03T14:10:43;3.07;;;2.77;;
8333;SDS011;4204;43.004;23.052;2023-04-03T14:13:12;4.20;;;2.60;;
8333;SDS011;4204;43.004;23.052;2023-04-03T14:15:40;4.60;;;3.00;;
8333;SDS011;4204;43.004;23.052;2023-04-03T14:18:10;4.23;;;2.67;;
8333;SDS011;4204;43.004;23.052;2023-04-03T14:20:37;4.23;;;2.63;;
8333;SDS011;4204;43.004;23.052;2023-04-03T14:23:05;4.77;;;3.17;;
8333;SDS011;4204;43.004;23.052;2023-04-03T14:25:32;3.40;;;2.83;;
8333;SDS011;4204;43.004;23.052;2023-04-03T14:28:00;3.93;;;3.20;;
8333;SDS011;4204;43.004;23.052;2023-04-03T14:30:30;4.77;;;3.53;;
8333;SDS011;4204;43.004;23.052;2023-04-03T14:32:59;4.10;;;3.07;;
8333;SDS011;4204;43.004;23.052;2023-04-03T14:35:27;3.80;;;3.40;;
8333;SDS011;4204;43.004;23.052;2023-04-03T14:37:54;3.60;;;3.07;;
8333;SDS011;4204;43.004;23.052;2023-04-03T14:40:23;4.23;;;3.17;;
8333;SDS011;4204;43.004;23.052;2023-04-03T14:42:51;3.97;;;3.57;;
8333;SDS011;4204;43.004;23.052;2023-04-03T14:45:20;4.07;;;3.67;;
8333;SDS011;4204;43.004;23.052;2023-04-03T14:47:51;3.83;;;3.43;;
8333;SDS011;4204;43.004;23.052;2023-04-03T14:50:19;4.87;;;4.13;;
8333;SDS011;4204;43.004;23.052;2023-04-03T14:52:48;4.37;;;3.57;;
8333;SDS011;4204;43.004;23.052;2023-04-03T14:55:16;4.20;;;3.77;;
8333;SDS011;4204;43.004;23.052;2023-04-03T14:57:44;4.77;;;3.60;;
8333;SDS011;4204;43.004;23.052;2023-04-03T15:00:12;6.53;;;4.27;;
8333;SDS011;4204;43.004;23.052;2023-04-03T15:02:40;6.30;;;5.03;;
8333;SDS011;4204;43.004;23.052;2023-04-03T15:05:09;10.43;;;7.30;;
8333;SDS011;4204;43.004;23.052;2023-04-03T15:07:37;6.83;;;5.30;;
8333;SDS011;4204;43.004;23.052;2023-04-03T15:10:13;7.80;;;4.90;;
8333;SDS011;4204;43.004;23.052;2023-04-03T15:12:42;6.93;;;5.17;;
8333;SDS011;4204;43.004;23.052;2023-04-03T15:15:09;6.40;;;4.97;;
8333;SDS011;4204;43.004;23.052;2023-04-03T15:17:37;6.80;;;5.17;;
8333;SDS011;4204;43.004;23.052;2023-04-03T15:20:06;4.80;;;4.23;;
8333;SDS011;4204;43.004;23.052;2023-04-03T15:22:39;7.43;;;6.07;;